createdAt,value
2023-02-11T00:01:34.476Z,101818.28
2023-02-11T00:04:03.492Z,101827.72
2023-02-11T00:06:33.608Z,101818.69
2023-02-11T00:09:02.378Z,101818.53
2023-02-11T00:11:31.328Z,101811.28
2023-02-11T00:14:02.757Z,101793.72
2023-02-11T00:16:32.493Z,101783.97
2023-02-11T00:19:02.452Z,101781.34
2023-02-11T00:21:31.285Z,101767.22
2023-02-11T00:24:02.387Z,101766.34
2023-02-11T00:26:35.128Z,101745.41
2023-02-11T00:29:04.720Z,101756.00
2023-02-11T00:31:33.604Z,101744.47
2023-02-11T00:34:02.191Z,101746.16
2023-02-11T00:36:31.357Z,101744.66
2023-02-11T00:39:01.449Z,101740.50
2023-02-11T00:41:30.055Z,101735.22
2023-02-11T00:43:58.805Z,101728.25
2023-02-11T00:46:27.441Z,101740.13
2023-02-11T00:48:57.946Z,101745.41
2023-02-11T00:51:28.178Z,101734.03
2023-02-11T00:53:56.654Z,101732.06
2023-02-11T00:56:25.305Z,101730.97
2023-02-11T00:58:54.361Z,101728.41
2023-02-11T01:01:22.972Z,101721.34
2023-02-11T01:03:51.750Z,101721.47
2023-02-11T01:06:20.496Z,101725.69
2023-02-11T01:08:48.997Z,101720.50
2023-02-11T01:11:20.933Z,101717.97
2023-02-11T01:13:51.144Z,101722.28
2023-02-11T01:16:20.748Z,101720.88
2023-02-11T01:18:49.644Z,101716.28
2023-02-11T01:21:18.179Z,101704.88
2023-02-11T01:23:46.896Z,101698.41
2023-02-11T01:26:15.586Z,101700.78
2023-02-11T01:28:44.229Z,101700.03
2023-02-11T01:31:12.768Z,101691.94
2023-02-11T01:33:41.592Z,101695.50
2023-02-11T01:36:10.601Z,101688.22
2023-02-11T01:38:40.979Z,101697.50
2023-02-11T01:41:14.629Z,101685.75
2023-02-11T01:43:50.922Z,101682.09
2023-02-11T01:46:25.021Z,101681.25
2023-02-11T01:49:12.444Z,101681.25
2023-02-11T01:51:48.494Z,101684.47
2023-02-11T01:54:39.340Z,101689.63
2023-02-11T01:57:25.089Z,101691.03
2023-02-11T02:00:29.119Z,101684.47
2023-02-11T02:03:07.624Z,101687.56
2023-02-11T02:05:47.013Z,101694.16
2023-02-11T02:08:29.941Z,101710.53
2023-02-11T02:11:00.922Z,101697.19
2023-02-11T02:13:34.830Z,101697.25
2023-02-11T02:16:10.175Z,101704.25
2023-02-11T02:18:41.567Z,101706.88
2023-02-11T02:21:34.141Z,101698.00
2023-02-11T02:24:34.693Z,101695.28
2023-02-11T02:27:36.160Z,101689.91
2023-02-11T02:30:31.921Z,101685.09
2023-02-11T02:33:48.596Z,101668.44
2023-02-11T02:36:33.188Z,101664.97
2023-02-11T02:39:09.344Z,101663.25
2023-02-11T02:41:39.171Z,101660.63
2023-02-11T02:44:09.942Z,101646.19
2023-02-11T02:46:38.949Z,101654.75
2023-02-11T02:49:14.669Z,101640.66
2023-02-11T02:52:01.290Z,101648.28
2023-02-11T02:55:09.887Z,101647.22
2023-02-11T02:57:50.493Z,101641.00
2023-02-11T03:00:59.945Z,101633.72
2023-02-11T03:03:37.374Z,101646.81
2023-02-11T03:06:21.304Z,101649.47
2023-02-11T03:09:11.153Z,101666.88
2023-02-11T03:11:39.939Z,101662.25
2023-02-11T03:14:12.349Z,101655.06
2023-02-11T03:16:41.356Z,101658.47
2023-02-11T03:19:19.866Z,101640.97
2023-02-11T03:21:50.547Z,101647.16
2023-02-11T03:24:34.745Z,101641.88
2023-02-11T03:27:34.986Z,101650.56
2023-02-11T03:30:15.060Z,101624.84
2023-02-11T03:32:57.264Z,101620.41
2023-02-11T03:35:54.651Z,101609.88
2023-02-11T03:38:35.895Z,101612.38
2023-02-11T03:41:07.795Z,101615.69
2023-02-11T03:43:43.342Z,101616.81
2023-02-11T03:46:15.919Z,101615.97
2023-02-11T03:48:50.897Z,101620.22
2023-02-11T03:51:19.596Z,101623.50
2023-02-11T03:53:49.585Z,101623.38
2023-02-11T03:56:23.096Z,101622.34
2023-02-11T03:58:51.632Z,101614.31
2023-02-11T04:01:20.138Z,101603.56
2023-02-11T04:03:48.705Z,101603.44
2023-02-11T04:06:17.134Z,101610.22
2023-02-11T04:08:45.662Z,101614.44
2023-02-11T04:11:14.084Z,101612.91
2023-02-11T04:13:42.614Z,101604.03
2023-02-11T04:16:11.123Z,101598.84
2023-02-11T04:18:39.679Z,101604.88
2023-02-11T04:21:08.157Z,101594.22
2023-02-11T04:23:36.649Z,101592.75
2023-02-11T04:26:05.317Z,101594.22
2023-02-11T04:28:34.940Z,101599.50
2023-02-11T04:31:03.769Z,101587.91
2023-02-11T04:33:32.289Z,101597.50
2023-02-11T04:36:00.751Z,101593.28
2023-02-11T04:38:29.210Z,101588.72
2023-02-11T04:41:00.573Z,101586.09
2023-02-11T04:43:29.070Z,101590.41
2023-02-11T04:46:00.377Z,101592.84
2023-02-11T04:48:28.996Z,101590.53
2023-02-11T04:50:57.358Z,101587.69
2023-02-11T04:53:25.867Z,101575.94
2023-02-11T04:55:54.332Z,101582.84
2023-02-11T04:58:22.849Z,101581.88
2023-02-11T05:00:53.739Z,101590.34
2023-02-11T05:03:22.145Z,101595.50
2023-02-11T05:05:51.389Z,101591.28
2023-02-11T05:08:20.041Z,101591.63
2023-02-11T05:10:48.973Z,101588.84
2023-02-11T05:13:17.474Z,101589.50
2023-02-11T05:15:46.071Z,101584.44
2023-02-11T05:18:15.592Z,101577.03
2023-02-11T05:20:44.981Z,101579.16
2023-02-11T05:23:13.876Z,101578.41
2023-02-11T05:25:42.277Z,101592.03
2023-02-11T05:28:10.943Z,101573.56
2023-02-11T05:30:39.431Z,101567.66
2023-02-11T05:33:08.031Z,101577.34
2023-02-11T05:35:36.778Z,101578.28
2023-02-11T05:38:06.217Z,101571.09
2023-02-11T05:40:37.051Z,101587.28
2023-02-11T05:43:05.555Z,101583.78
2023-02-11T05:45:34.340Z,101591.63
2023-02-11T05:48:02.776Z,101589.78
2023-02-11T05:50:31.231Z,101585.38
2023-02-11T05:52:59.832Z,101588.56
2023-02-11T05:55:28.401Z,101585.91
2023-02-11T05:57:56.886Z,101591.28
2023-02-11T06:00:25.753Z,101577.34
2023-02-11T06:02:54.255Z,101580.22
2023-02-11T06:05:22.843Z,101572.06
2023-02-11T06:07:51.452Z,101566.59
2023-02-11T06:10:20.191Z,101554.97
2023-02-11T06:12:48.639Z,101559.31
2023-02-11T06:15:23.080Z,101571.94
2023-02-11T06:17:56.369Z,101564.47
2023-02-11T06:20:24.986Z,101564.88
2023-02-11T06:22:53.440Z,101559.50
2023-02-11T06:25:24.774Z,101551.69
2023-02-11T06:27:55.627Z,101550.53
2023-02-11T06:30:24.558Z,101552.44
2023-02-11T06:32:53.092Z,101554.13
2023-02-11T06:35:21.535Z,101559.09
2023-02-11T06:37:50.005Z,101559.19
2023-02-11T06:40:18.585Z,101561.09
2023-02-11T06:42:47.054Z,101568.38
2023-02-11T06:45:15.484Z,101563.09
2023-02-11T06:47:43.901Z,101567.44
2023-02-11T06:50:15.578Z,101578.00
2023-02-11T06:52:44.100Z,101584.44
2023-02-11T06:55:12.551Z,101586.97
2023-02-11T06:57:41.157Z,101585.69
2023-02-11T07:00:10.250Z,101595.41
2023-02-11T07:02:38.636Z,101593.63
2023-02-11T07:05:08.830Z,101587.19
2023-02-11T07:07:38.061Z,101576.63
2023-02-11T07:10:06.980Z,101570.91
2023-02-11T07:12:35.389Z,101570.91
2023-02-11T07:15:03.971Z,101584.97
2023-02-11T07:17:32.392Z,101581.03
2023-02-11T07:20:00.886Z,101575.75
2023-02-11T07:22:29.393Z,101588.03
2023-02-11T07:24:57.790Z,101583.78
2023-02-11T07:27:26.270Z,101584.31
2023-02-11T07:29:54.685Z,101594.44
2023-02-11T07:32:23.190Z,101586.75
2023-02-11T07:34:51.740Z,101591.09
2023-02-11T07:37:20.685Z,101589.78
2023-02-11T07:39:49.142Z,101589.88
2023-02-11T07:42:17.660Z,101581.16
2023-02-11T07:44:50.229Z,101578.81
2023-02-11T07:47:18.913Z,101575.22
2023-02-11T07:49:47.744Z,101584.19
2023-02-11T07:52:16.228Z,101580.28
2023-02-11T07:54:44.408Z,101579.09
2023-02-11T07:57:12.796Z,101580.28
2023-02-11T07:59:41.288Z,101586.09
2023-02-11T08:02:10.866Z,101593.16
2023-02-11T08:04:39.342Z,101579.00
2023-02-11T08:07:07.795Z,101577.84
2023-02-11T08:09:36.209Z,101577.50
2023-02-11T08:12:04.742Z,101565.66
2023-02-11T08:14:33.733Z,101569.47
2023-02-11T08:17:01.858Z,101568.19
2023-02-11T08:19:30.315Z,101577.09
2023-02-11T08:21:59.933Z,101581.09
2023-02-11T08:24:28.383Z,101578.31
2023-02-11T08:26:56.936Z,101578.22
2023-02-11T08:29:25.419Z,101574.50
2023-02-11T08:31:53.903Z,101572.50
2023-02-11T08:34:22.375Z,101565.91
2023-02-11T08:36:51.120Z,101567.31
2023-02-11T08:39:23.107Z,101577.03
2023-02-11T08:41:54.533Z,101582.19
2023-02-11T08:44:24.183Z,101575.28
2023-02-11T08:46:53.108Z,101572.56
2023-02-11T08:49:22.317Z,101580.53
2023-02-11T08:51:51.099Z,101581.53
2023-02-11T08:54:19.161Z,101590.47
2023-02-11T08:56:47.790Z,101591.56
2023-02-11T08:59:17.850Z,101582.16
2023-02-11T09:01:47.251Z,101578.97
2023-02-11T09:04:16.289Z,101589.16
2023-02-11T09:06:44.694Z,101586.06
2023-02-11T09:09:17.345Z,101579.59
2023-02-11T09:11:46.397Z,101591.13
2023-02-11T09:14:21.875Z,101594.09
2023-02-11T09:16:50.765Z,101604.13
2023-02-11T09:19:20.097Z,101612.06
2023-02-11T09:21:48.748Z,101617.88
2023-02-11T09:24:17.008Z,101605.47
2023-02-11T09:26:45.530Z,101616.78
2023-02-11T09:29:14.286Z,101626.56
2023-02-11T09:31:42.806Z,101628.50
2023-02-11T09:34:12.822Z,101611.28
2023-02-11T09:36:41.932Z,101619.84
2023-02-11T09:39:16.913Z,101618.28
2023-02-11T09:42:43.327Z,101618.91
2023-02-11T09:45:21.247Z,101624.34
2023-02-11T09:48:06.270Z,101629.19
2023-02-11T09:50:43.076Z,101626.81
2023-02-11T09:53:30.766Z,101634.16
2023-02-11T09:56:02.662Z,101619.94
2023-02-11T09:58:31.597Z,101621.06
2023-02-11T10:01:00.018Z,101617.22
2023-02-11T10:04:07.374Z,101624.69
2023-02-11T10:06:53.234Z,101604.25
2023-02-11T10:10:03.525Z,101599.88
2023-02-11T10:12:51.221Z,101597.94
2023-02-11T10:15:22.501Z,101592.56
2023-02-11T10:18:23.964Z,101594.47
2023-02-11T10:21:34.273Z,101610.16
2023-02-11T10:24:07.181Z,101614.59
2023-02-11T10:26:38.521Z,101598.56
2023-02-11T10:29:37.993Z,101610.28
2023-02-11T10:32:41.764Z,101599.69
2023-02-11T10:35:28.284Z,101605.81
2023-02-11T10:37:57.041Z,101613.16
2023-02-11T10:40:32.386Z,101614.47
2023-02-11T10:43:05.833Z,101611.59
2023-02-11T10:45:44.372Z,101614.59
2023-02-11T10:48:49.491Z,101626.78
2023-02-11T10:51:31.574Z,101628.22
2023-02-11T10:54:05.586Z,101616.31
2023-02-11T10:56:46.233Z,101621.63
2023-02-11T10:59:40.439Z,101600.84
2023-02-11T11:02:34.460Z,101587.38
2023-02-11T11:05:18.718Z,101574.94
2023-02-11T11:08:01.798Z,101573.16
2023-02-11T11:10:44.418Z,101587.13
2023-02-11T11:13:34.224Z,101609.66
2023-02-11T11:16:10.177Z,101600.38
2023-02-11T11:18:39.087Z,101593.28
2023-02-11T11:21:24.689Z,101581.09
2023-02-11T11:24:00.781Z,101576.78
2023-02-11T11:26:44.939Z,101574.84
2023-02-11T11:29:29.238Z,101577.50
2023-02-11T11:32:26.487Z,101563.88
2023-02-11T11:34:58.433Z,101572.31
2023-02-11T11:37:36.738Z,101581.94
2023-02-11T11:40:16.962Z,101594.84
2023-02-11T11:42:45.252Z,101593.06
2023-02-11T11:45:19.652Z,101598.81
2023-02-11T11:48:20.886Z,101603.03
2023-02-11T11:50:51.579Z,101613.41
2023-02-11T11:53:42.933Z,101615.56
2023-02-11T11:56:25.535Z,101605.09
2023-02-11T11:58:55.265Z,101601.25
2023-02-11T12:01:54.088Z,101598.44
2023-02-11T12:04:34.925Z,101596.28
2023-02-11T12:07:47.258Z,101601.84
2023-02-11T12:11:16.626Z,101599.44
2023-02-11T12:14:22.608Z,101593.78
2023-02-11T12:17:03.889Z,101592.78
2023-02-11T12:19:48.656Z,101602.28
2023-02-11T12:22:37.955Z,101606.53
2023-02-11T12:25:05.975Z,101621.47
2023-02-11T12:28:01.733Z,101613.03
2023-02-11T12:30:47.360Z,101602.41
2023-02-11T12:33:27.655Z,101591.44
2023-02-11T12:36:40.830Z,101605.19
2023-02-11T12:39:21.031Z,101600.28
2023-02-11T12:42:33.053Z,101593.63
2023-02-11T12:45:13.090Z,101592.56
2023-02-11T12:48:06.197Z,101587.25
2023-02-11T12:51:14.459Z,101589.28
2023-02-11T12:53:54.786Z,101584.59
2023-02-11T12:56:30.829Z,101582.78
2023-02-11T12:59:02.084Z,101581.22
2023-02-11T13:01:41.137Z,101584.94
2023-02-11T13:04:40.206Z,101592.44
2023-02-11T13:07:24.520Z,101591.69
2023-02-11T13:10:25.942Z,101597.00
2023-02-11T13:13:14.333Z,101585.69
2023-02-11T13:15:57.517Z,101581.81
2023-02-11T13:18:50.944Z,101580.25
2023-02-11T13:21:47.923Z,101582.91
2023-02-11T13:25:09.430Z,101584.22
2023-02-11T13:27:50.529Z,101593.78
2023-02-11T13:30:34.150Z,101589.53
2023-02-11T13:33:02.503Z,101583.75
2023-02-11T13:35:43.251Z,101579.53
2023-02-11T13:38:29.203Z,101581.69
2023-02-11T13:41:03.136Z,101585.94
2023-02-11T13:43:33.988Z,101583.88
2023-02-11T13:46:22.963Z,101590.38
2023-02-11T13:48:54.443Z,101596.03
2023-02-11T13:51:52.612Z,101599.78
2023-02-11T13:54:30.316Z,101599.44
2023-02-11T13:57:38.904Z,101599.53
2023-02-11T14:00:36.183Z,101590.13
2023-02-11T14:03:33.137Z,101590.38
2023-02-11T14:06:27.049Z,101603.16
2023-02-11T14:09:15.904Z,101603.28
2023-02-11T14:11:55.425Z,101595.31
2023-02-11T14:14:34.977Z,101593.41
2023-02-11T14:17:09.357Z,101602.31
2023-02-11T14:19:47.282Z,101591.81
2023-02-11T14:22:19.743Z,101593.03
2023-02-11T14:25:04.718Z,101607.38
2023-02-11T14:27:44.641Z,101610.88
2023-02-11T14:30:42.825Z,101608.09
2023-02-11T14:33:53.733Z,101610.03
2023-02-11T14:36:31.892Z,101607.38
2023-02-11T14:39:45.987Z,101607.50
2023-02-11T14:42:22.474Z,101613.78
2023-02-11T14:44:52.465Z,101608.56
2023-02-11T14:47:29.938Z,101604.97
2023-02-11T14:49:58.363Z,101599.91
2023-02-11T14:52:31.380Z,101592.06
2023-02-11T14:55:24.722Z,101594.72
2023-02-11T14:58:14.348Z,101584.97
2023-02-11T15:01:00.132Z,101581.97
2023-02-11T15:03:39.738Z,101583.50
2023-02-11T15:06:21.020Z,101572.16
2023-02-11T15:09:20.044Z,101583.38
2023-02-11T15:11:52.513Z,101589.53
2023-02-11T15:14:25.042Z,101597.94
2023-02-11T15:16:56.534Z,101603.25
2023-02-11T15:19:27.605Z,101598.09
2023-02-11T15:21:56.952Z,101614.13
2023-02-11T15:24:32.014Z,101599.75
2023-02-11T15:27:18.556Z,101611.22
2023-02-11T15:29:51.060Z,101618.22
2023-02-11T15:32:26.773Z,101620.41
2023-02-11T15:34:57.388Z,101626.78
2023-02-11T15:37:30.174Z,101628.56
2023-02-11T15:40:19.978Z,101631.97
2023-02-11T15:43:06.069Z,101633.53
2023-02-11T15:45:44.156Z,101632.69
2023-02-11T15:48:18.639Z,101634.47
2023-02-11T15:50:54.733Z,101619.19
2023-02-11T15:53:32.793Z,101621.38
2023-02-11T15:56:13.791Z,101622.69
2023-02-11T15:58:45.470Z,101623.66
2023-02-11T16:01:14.204Z,101624.84
2023-02-11T16:03:44.374Z,101622.94
2023-02-11T16:06:17.089Z,101625.47
2023-02-11T16:08:57.345Z,101625.34
2023-02-11T16:11:48.686Z,101637.50
2023-02-11T16:14:30.594Z,101639.19
2023-02-11T16:17:13.731Z,101642.81
2023-02-11T16:19:50.910Z,101657.88
2023-02-11T16:22:35.377Z,101656.19
2023-02-11T16:25:03.624Z,101657.75
2023-02-11T16:27:43.134Z,101664.03
2023-02-11T16:30:30.651Z,101658.72
2023-02-11T16:32:59.087Z,101659.59
2023-02-11T16:35:27.148Z,101660.53
2023-02-11T16:37:55.576Z,101666.94
2023-02-11T16:40:24.197Z,101657.03
2023-02-11T16:42:53.463Z,101664.88
2023-02-11T16:45:21.998Z,101673.56
2023-02-11T16:47:50.049Z,101658.59
2023-02-11T16:50:25.537Z,101671.00
2023-02-11T16:52:54.372Z,101683.69
2023-02-11T16:55:22.836Z,101685.38
2023-02-11T16:57:51.294Z,101685.25
2023-02-11T17:00:19.888Z,101689.56
2023-02-11T17:02:48.042Z,101690.78
2023-02-11T17:05:23.378Z,101696.94
2023-02-11T17:07:51.467Z,101694.19
2023-02-11T17:10:23.920Z,101692.25
2023-02-11T17:12:53.406Z,101691.63
2023-02-11T17:15:21.829Z,101707.69
2023-02-11T17:17:50.244Z,101702.50
2023-02-11T17:20:18.635Z,101697.19
2023-02-11T17:22:47.112Z,101702.63
2023-02-11T17:25:15.564Z,101700.09
2023-02-11T17:27:43.943Z,101705.03
2023-02-11T17:30:14.183Z,101699.97
2023-02-11T17:32:42.995Z,101706.09
2023-02-11T17:35:11.045Z,101703.81
2023-02-11T17:37:39.531Z,101708.38
2023-02-11T17:40:09.583Z,101707.44
2023-02-11T17:42:38.036Z,101702.50
2023-02-11T17:45:07.201Z,101708.16
2023-02-11T17:47:35.732Z,101710.47
2023-02-11T17:50:04.334Z,101716.72
2023-02-11T17:52:32.727Z,101721.66
2023-02-11T17:55:01.212Z,101718.38
2023-02-11T17:57:29.702Z,101725.63
2023-02-11T17:59:58.225Z,101723.19
2023-02-11T18:02:26.486Z,101721.63
2023-02-11T18:04:57.496Z,101722.00
2023-02-11T18:07:26.604Z,101727.44
2023-02-11T18:09:54.866Z,101714.84
2023-02-11T18:12:26.319Z,101729.19
2023-02-11T18:14:57.992Z,101733.38
2023-02-11T18:17:26.875Z,101745.19
2023-02-11T18:19:59.225Z,101738.31
2023-02-11T18:22:27.986Z,101744.69
2023-02-11T18:24:56.742Z,101745.16
2023-02-11T18:27:25.150Z,101756.31
2023-02-11T18:29:53.642Z,101760.53
2023-02-11T18:32:22.107Z,101761.72
2023-02-11T18:34:50.591Z,101753.16
2023-02-11T18:37:19.917Z,101763.97
2023-02-11T18:39:48.032Z,101769.50
2023-02-11T18:42:16.094Z,101768.78
2023-02-11T18:44:44.503Z,101770.72
2023-02-11T18:47:13.030Z,101781.72
2023-02-11T18:49:41.443Z,101782.31
2023-02-11T18:52:09.886Z,101787.38
2023-02-11T18:54:38.327Z,101790.97
2023-02-11T18:57:06.741Z,101803.13
2023-02-11T18:59:35.203Z,101792.16
2023-02-11T19:02:03.616Z,101793.75
2023-02-11T19:04:32.101Z,101802.66
2023-02-11T19:07:03.177Z,101799.88
2023-02-11T19:09:31.802Z,101796.72
2023-02-11T19:12:01.876Z,101804.66
2023-02-11T19:14:34.910Z,101797.66
2023-02-11T19:17:10.740Z,101794.06
2023-02-11T19:19:40.872Z,101790.91
2023-02-11T19:22:10.807Z,101790.06
2023-02-11T19:24:39.756Z,101798.03
2023-02-11T19:27:08.288Z,101796.31
2023-02-11T19:29:36.780Z,101800.44
2023-02-11T19:32:07.075Z,101815.34
2023-02-11T19:34:41.202Z,101816.19
2023-02-11T19:37:12.526Z,101810.69
2023-02-11T19:39:42.583Z,101820.47
2023-02-11T19:42:10.973Z,101841.41
2023-02-11T19:44:39.410Z,101830.59
2023-02-11T19:47:07.982Z,101830.47
2023-02-11T19:49:36.072Z,101837.56
2023-02-11T19:52:04.249Z,101840.97
2023-02-11T19:54:32.452Z,101850.50
2023-02-11T19:57:00.652Z,101844.13
2023-02-11T19:59:29.074Z,101858.13
2023-02-11T20:01:57.702Z,101864.47
2023-02-11T20:04:25.842Z,101862.88
2023-02-11T20:06:54.107Z,101856.75
2023-02-11T20:09:22.835Z,101856.97
2023-02-11T20:11:51.281Z,101867.47
2023-02-11T20:14:19.797Z,101869.03
2023-02-11T20:16:50.010Z,101865.66
2023-02-11T20:19:22.065Z,101863.00
2023-02-11T20:21:55.773Z,101864.81
2023-02-11T20:24:25.296Z,101870.63
2023-02-11T20:26:55.861Z,101862.78
2023-02-11T20:29:25.544Z,101863.41
2023-02-11T20:31:53.877Z,101869.75
2023-02-11T20:34:22.499Z,101869.88
2023-02-11T20:36:52.812Z,101871.91
2023-02-11T20:39:23.453Z,101865.97
2023-02-11T20:41:53.665Z,101865.97
2023-02-11T20:44:22.875Z,101875.63
2023-02-11T20:46:54.364Z,101879.22
2023-02-11T20:49:26.908Z,101881.16
2023-02-11T20:51:55.608Z,101879.44
2023-02-11T20:54:25.993Z,101884.75
2023-02-11T20:56:55.974Z,101884.00
2023-02-11T20:59:24.309Z,101883.78
2023-02-11T21:01:56.402Z,101879.53
2023-02-11T21:04:30.626Z,101882.94
2023-02-11T21:07:02.369Z,101880.16
2023-02-11T21:09:33.787Z,101888.13
2023-02-11T21:12:03.287Z,101887.06
2023-02-11T21:14:31.956Z,101891.19
2023-02-11T21:17:00.494Z,101889.59
2023-02-11T21:19:28.930Z,101897.22
2023-02-11T21:22:00.525Z,101907.91
2023-02-11T21:24:28.834Z,101910.47
2023-02-11T21:26:57.436Z,101910.47
2023-02-11T21:29:26.086Z,101920.09
2023-02-11T21:31:54.505Z,101915.56
2023-02-11T21:34:22.896Z,101929.84
2023-02-11T21:36:52.258Z,101929.09
2023-02-11T21:39:21.134Z,101938.13
2023-02-11T21:41:49.737Z,101942.47
2023-02-11T21:44:18.267Z,101949.56
2023-02-11T21:46:46.514Z,101948.59
2023-02-11T21:49:15.015Z,101948.59
2023-02-11T21:51:43.050Z,101944.06
2023-02-11T21:54:12.966Z,101954.31
2023-02-11T21:56:41.561Z,101963.88
2023-02-11T21:59:13.622Z,101962.59
2023-02-11T22:01:42.894Z,101952.84
2023-02-11T22:04:11.568Z,101965.13
2023-02-11T22:06:40.209Z,101979.00
2023-02-11T22:09:10.828Z,101966.81
2023-02-11T22:11:38.877Z,101966.81
2023-02-11T22:14:07.386Z,101970.19
2023-02-11T22:16:35.824Z,101964.81
2023-02-11T22:19:06.002Z,101973.72
2023-02-11T22:21:34.179Z,101979.13
2023-02-11T22:24:02.255Z,101968.53
2023-02-11T22:26:30.273Z,101977.13
2023-02-11T22:28:59.196Z,101985.16
2023-02-11T22:31:34.204Z,101985.88
2023-02-11T22:34:04.537Z,101984.00
2023-02-11T22:36:38.293Z,101984.00
2023-02-11T22:39:14.219Z,101979.63
2023-02-11T22:41:44.231Z,101983.03
2023-02-11T22:44:12.684Z,101997.97
2023-02-11T22:46:41.558Z,101993.44
2023-02-11T22:49:10.970Z,102000.63
2023-02-11T22:51:40.252Z,102005.69
2023-02-11T22:54:13.121Z,102003.91
2023-02-11T22:56:41.595Z,102004.75
2023-02-11T22:59:14.449Z,102012.06
2023-02-11T23:01:43.469Z,102013.66
2023-02-11T23:04:15.868Z,102023.53
2023-02-11T23:06:44.365Z,102014.63
2023-02-11T23:09:13.446Z,102025.00
2023-02-11T23:11:42.163Z,102021.38
2023-02-11T23:14:12.214Z,102027.53
2023-02-11T23:16:40.612Z,102031.16
2023-02-11T23:19:10.340Z,102029.31
2023-02-11T23:21:40.656Z,102031.25
2023-02-11T23:24:14.729Z,102041.84
2023-02-11T23:26:44.925Z,102042.78
2023-02-11T23:29:13.798Z,102031.25
2023-02-11T23:31:46.071Z,102035.59
2023-02-11T23:34:17.183Z,102026.69
2023-02-11T23:36:45.853Z,102025.09
2023-02-11T23:39:17.124Z,102028.69
2023-02-11T23:41:46.315Z,102029.44
2023-02-11T23:44:14.743Z,102035.59
2023-02-11T23:46:43.124Z,102032.97
2023-02-11T23:49:11.270Z,102048.09
2023-02-11T23:51:39.663Z,102038.47
2023-02-11T23:54:08.038Z,102040.25
2023-02-11T23:56:37.524Z,102036.75
2023-02-11T23:59:06.845Z,102040.34
